sensor_id;sensor_type;location;lat;lon;timestamp;pressure;altitude;pressure_sealevel;temperature;humidity
77572;BME280;67214;47.454;18.966;2023-06-14T00:00:16;99950.96;;;12.24;74.24
77572;BME280;67214;47.454;18.966;2023-06-14T00:02:43;99950.20;;;12.18;74.75
77572;BME280;67214;47.454;18.966;2023-06-14T00:05:11;99948.80;;;12.33;74.63
77572;BME280;67214;47.454;18.966;2023-06-14T00:07:42;99954.13;;;12.33;74.54
77572;BME280;67214;47.454;18.966;2023-06-14T00:10:11;99937.25;;;12.29;74.51
77572;BME280;67214;47.454;18.966;2023-06-14T00:12:38;99949.76;;;12.23;74.74
77572;BME280;67214;47.454;18.966;2023-06-14T00:15:07;99957.10;;;12.15;75.36
77572;BME280;67214;47.454;18.966;2023-06-14T00:17:36;99953.12;;;12.15;75.33
77572;BME280;67214;47.454;18.966;2023-06-14T00:20:05;99949.61;;;12.15;75.37
77572;BME280;67214;47.454;18.966;2023-06-14T00:22:33;99950.80;;;12.06;75.45
77572;BME280;67214;47.454;18.966;2023-06-14T00:25:02;99962.84;;;12.01;75.65
77572;BME280;67214;47.454;18.966;2023-06-14T00:27:30;99968.84;;;11.93;75.69
77572;BME280;67214;47.454;18.966;2023-06-14T00:29:57;99967.36;;;11.85;75.80
77572;BME280;67214;47.454;18.966;2023-06-14T00:32:25;99971.83;;;11.85;76.05
77572;BME280;67214;47.454;18.966;2023-06-14T00:34:54;99968.52;;;11.87;75.74
77572;BME280;67214;47.454;18.966;2023-06-14T00:37:22;99969.61;;;11.90;75.59
77572;BME280;67214;47.454;18.966;2023-06-14T00:39:49;99975.09;;;11.83;75.88
77572;BME280;67214;47.454;18.966;2023-06-14T00:42:26;99972.11;;;11.82;76.09
77572;BME280;67214;47.454;18.966;2023-06-14T00:44:55;99969.65;;;11.84;76.15
77572;BME280;67214;47.454;18.966;2023-06-14T00:47:22;99968.37;;;11.79;75.96
77572;BME280;67214;47.454;18.966;2023-06-14T00:49:51;99975.01;;;11.79;76.28
77572;BME280;67214;47.454;18.966;2023-06-14T00:52:20;99966.95;;;11.75;76.34
77572;BME280;67214;47.454;18.966;2023-06-14T00:54:47;99970.83;;;11.71;76.37
77572;BME280;67214;47.454;18.966;2023-06-14T00:57:15;99973.48;;;11.71;76.35
77572;BME280;67214;47.454;18.966;2023-06-14T00:59:45;99957.78;;;11.58;76.85
77572;BME280;67214;47.454;18.966;2023-06-14T01:02:13;99965.98;;;11.60;76.72
77572;BME280;67214;47.454;18.966;2023-06-14T01:04:43;99965.42;;;11.57;76.86
77572;BME280;67214;47.454;18.966;2023-06-14T01:07:50;99956.52;;;11.52;76.87
77572;BME280;67214;47.454;18.966;2023-06-14T01:10:29;99963.05;;;11.63;76.81
77572;BME280;67214;47.454;18.966;2023-06-14T01:13:05;99960.40;;;11.63;76.43
77572;BME280;67214;47.454;18.966;2023-06-14T01:15:30;99966.64;;;11.68;76.96
77572;BME280;67214;47.454;18.966;2023-06-14T01:17:58;99972.08;;;11.66;77.24
77572;BME280;67214;47.454;18.966;2023-06-14T01:20:33;99960.69;;;11.70;77.18
77572;BME280;67214;47.454;18.966;2023-06-14T01:22:58;99957.53;;;11.76;77.33
77572;BME280;67214;47.454;18.966;2023-06-14T01:25:27;99956.13;;;11.72;77.39
77572;BME280;67214;47.454;18.966;2023-06-14T01:27:58;99958.88;;;11.71;77.62
77572;BME280;67214;47.454;18.966;2023-06-14T01:30:25;99965.67;;;11.69;77.97
77572;BME280;67214;47.454;18.966;2023-06-14T01:32:54;99953.27;;;11.64;78.32
77572;BME280;67214;47.454;18.966;2023-06-14T01:35:22;99957.33;;;11.83;78.74
77572;BME280;67214;47.454;18.966;2023-06-14T01:37:50;99958.26;;;11.88;78.56
77572;BME280;67214;47.454;18.966;2023-06-14T01:40:19;99954.35;;;11.92;78.21
77572;BME280;67214;47.454;18.966;2023-06-14T01:42:50;99965.47;;;11.91;78.19
77572;BME280;67214;47.454;18.966;2023-06-14T01:45:19;99964.70;;;11.95;78.20
77572;BME280;67214;47.454;18.966;2023-06-14T01:47:47;99965.90;;;11.96;77.92
77572;BME280;67214;47.454;18.966;2023-06-14T01:50:15;99964.21;;;11.95;77.98
77572;BME280;67214;47.454;18.966;2023-06-14T01:52:43;99965.42;;;11.97;78.07
77572;BME280;67214;47.454;18.966;2023-06-14T01:55:10;99967.59;;;11.97;78.00
77572;BME280;67214;47.454;18.966;2023-06-14T01:57:38;99970.66;;;11.93;78.38
77572;BME280;67214;47.454;18.966;2023-06-14T02:00:06;99970.50;;;11.94;78.62
77572;BME280;67214;47.454;18.966;2023-06-14T02:02:35;99979.80;;;11.94;78.58
77572;BME280;67214;47.454;18.966;2023-06-14T02:05:03;99980.23;;;11.90;78.56
77572;BME280;67214;47.454;18.966;2023-06-14T02:07:31;99978.75;;;11.91;78.71
77572;BME280;67214;47.454;18.966;2023-06-14T02:09:59;99975.41;;;11.89;78.82
77572;BME280;67214;47.454;18.966;2023-06-14T02:12:27;99982.12;;;11.93;78.68
77572;BME280;67214;47.454;18.966;2023-06-14T02:14:54;99983.22;;;11.91;78.55
77572;BME280;67214;47.454;18.966;2023-06-14T02:17:23;99978.06;;;11.89;78.47
77572;BME280;67214;47.454;18.966;2023-06-14T02:19:51;99984.42;;;11.92;78.36
77572;BME280;67214;47.454;18.966;2023-06-14T02:22:18;99977.27;;;11.83;78.52
77572;BME280;67214;47.454;18.966;2023-06-14T02:24:47;99984.39;;;11.83;78.60
77572;BME280;67214;47.454;18.966;2023-06-14T02:27:16;99980.48;;;11.87;78.75
77572;BME280;67214;47.454;18.966;2023-06-14T02:29:43;99977.14;;;11.85;78.74
77572;BME280;67214;47.454;18.966;2023-06-14T02:32:11;99976.98;;;11.77;78.94
77572;BME280;67214;47.454;18.966;2023-06-14T02:34:39;99984.19;;;11.80;78.94
77572;BME280;67214;47.454;18.966;2023-06-14T02:37:07;99971.78;;;11.75;79.07
77572;BME280;67214;47.454;18.966;2023-06-14T02:39:36;99977.27;;;11.68;79.37
77572;BME280;67214;47.454;18.966;2023-06-14T02:42:03;99982.45;;;11.70;79.66
77572;BME280;67214;47.454;18.966;2023-06-14T02:44:32;99980.05;;;11.66;79.71
77572;BME280;67214;47.454;18.966;2023-06-14T02:47:00;99981.05;;;11.65;80.16
77572;BME280;67214;47.454;18.966;2023-06-14T02:49:27;99989.98;;;11.64;80.59
77572;BME280;67214;47.454;18.966;2023-06-14T02:51:56;99986.69;;;11.66;80.96
77572;BME280;67214;47.454;18.966;2023-06-14T02:54:24;99973.48;;;11.71;81.36
77572;BME280;67214;47.454;18.966;2023-06-14T02:56:51;99981.56;;;11.75;81.23
77572;BME280;67214;47.454;18.966;2023-06-14T02:59:18;99974.40;;;11.81;80.80
77572;BME280;67214;47.454;18.966;2023-06-14T03:01:47;99987.41;;;11.84;80.59
77572;BME280;67214;47.454;18.966;2023-06-14T03:04:15;99986.16;;;11.88;80.19
77572;BME280;67214;47.454;18.966;2023-06-14T03:06:42;99983.70;;;11.90;79.81
77572;BME280;67214;47.454;18.966;2023-06-14T03:09:11;99974.61;;;11.83;80.01
77572;BME280;67214;47.454;18.966;2023-06-14T03:11:39;99980.80;;;11.78;80.10
77572;BME280;67214;47.454;18.966;2023-06-14T03:14:06;99965.63;;;11.75;80.10
77572;BME280;67214;47.454;18.966;2023-06-14T03:16:34;99976.91;;;11.82;80.48
77572;BME280;67214;47.454;18.966;2023-06-14T03:19:03;99980.41;;;11.83;80.60
77572;BME280;67214;47.454;18.966;2023-06-14T03:21:31;99979.80;;;11.85;80.34
77572;BME280;67214;47.454;18.966;2023-06-14T03:23:58;99981.33;;;11.87;80.25
77572;BME280;67214;47.454;18.966;2023-06-14T03:26:26;99983.38;;;11.99;79.93
77572;BME280;67214;47.454;18.966;2023-06-14T03:28:53;99979.27;;;12.00;80.08
77572;BME280;67214;47.454;18.966;2023-06-14T03:31:21;99975.56;;;11.97;80.56
77572;BME280;67214;47.454;18.966;2023-06-14T03:33:50;99982.84;;;12.05;80.67
77572;BME280;67214;47.454;18.966;2023-06-14T03:36:17;99982.77;;;12.01;81.07
77572;BME280;67214;47.454;18.966;2023-06-14T03:38:45;99989.49;;;12.05;81.15
77572;BME280;67214;47.454;18.966;2023-06-14T03:41:12;99988.16;;;12.05;81.14
77572;BME280;67214;47.454;18.966;2023-06-14T03:43:39;99990.34;;;12.15;80.87
77572;BME280;67214;47.454;18.966;2023-06-14T03:46:07;99990.89;;;12.19;80.59
77572;BME280;67214;47.454;18.966;2023-06-14T03:48:34;99995.24;;;12.20;80.72
77572;BME280;67214;47.454;18.966;2023-06-14T03:51:02;99998.82;;;12.24;80.75
77572;BME280;67214;47.454;18.966;2023-06-14T03:53:29;99988.13;;;12.30;80.61
77572;BME280;67214;47.454;18.966;2023-06-14T03:55:57;99990.63;;;12.31;80.71
77572;BME280;67214;47.454;18.966;2023-06-14T03:58:26;99979.89;;;12.42;80.45
77572;BME280;67214;47.454;18.966;2023-06-14T04:00:54;99990.92;;;12.47;80.47
77572;BME280;67214;47.454;18.966;2023-06-14T04:03:21;99992.33;;;12.51;80.44
77572;BME280;67214;47.454;18.966;2023-06-14T04:05:50;99988.77;;;12.56;80.44
77572;BME280;67214;47.454;18.966;2023-06-14T04:08:20;100000.26;;;12.67;80.45
77572;BME280;67214;47.454;18.966;2023-06-14T04:10:48;99998.48;;;12.81;80.01
77572;BME280;67214;47.454;18.966;2023-06-14T04:13:16;100001.44;;;12.87;79.78
77572;BME280;67214;47.454;18.966;2023-06-14T04:15:43;100003.45;;;12.99;79.48
77572;BME280;67214;47.454;18.966;2023-06-14T04:18:12;100000.55;;;13.06;79.17
77572;BME280;67214;47.454;18.966;2023-06-14T04:20:40;100008.50;;;13.12;79.14
77572;BME280;67214;47.454;18.966;2023-06-14T04:23:15;100008.70;;;13.14;79.31
77572;BME280;67214;47.454;18.966;2023-06-14T04:25:44;100010.28;;;13.21;78.99
77572;BME280;67214;47.454;18.966;2023-06-14T04:28:14;100009.97;;;13.33;79.07
77572;BME280;67214;47.454;18.966;2023-06-14T04:30:46;100009.24;;;13.41;78.43
77572;BME280;67214;47.454;18.966;2023-06-14T04:33:13;100008.87;;;13.49;78.27
77572;BME280;67214;47.454;18.966;2023-06-14T04:35:41;100005.64;;;13.56;77.93
77572;BME280;67214;47.454;18.966;2023-06-14T04:38:09;100008.05;;;13.63;76.84
77572;BME280;67214;47.454;18.966;2023-06-14T04:40:56;100009.36;;;13.72;76.98
77572;BME280;67214;47.454;18.966;2023-06-14T04:43:23;100011.82;;;13.83;75.81
77572;BME280;67214;47.454;18.966;2023-06-14T04:45:52;100001.12;;;13.93;76.19
77572;BME280;67214;47.454;18.966;2023-06-14T04:48:22;100013.84;;;13.99;75.55
77572;BME280;67214;47.454;18.966;2023-06-14T04:50:49;100010.64;;;14.09;75.00
77572;BME280;67214;47.454;18.966;2023-06-14T04:53:19;100015.62;;;14.22;74.36
77572;BME280;67214;47.454;18.966;2023-06-14T04:55:49;100018.47;;;14.24;74.97
77572;BME280;67214;47.454;18.966;2023-06-14T04:58:17;100018.65;;;14.27;74.73
77572;BME280;67214;47.454;18.966;2023-06-14T05:00:44;100013.78;;;14.36;74.92
77572;BME280;67214;47.454;18.966;2023-06-14T05:03:12;100018.36;;;14.43;74.31
77572;BME280;67214;47.454;18.966;2023-06-14T05:05:43;100026.80;;;14.53;75.07
77572;BME280;67214;47.454;18.966;2023-06-14T05:08:11;100025.19;;;14.60;73.08
77572;BME280;67214;47.454;18.966;2023-06-14T05:10:39;100022.00;;;14.74;72.75
77572;BME280;67214;47.454;18.966;2023-06-14T05:13:06;100016.52;;;14.79;72.78
77572;BME280;67214;47.454;18.966;2023-06-14T05:15:34;100021.50;;;14.96;73.24
77572;BME280;67214;47.454;18.966;2023-06-14T05:18:02;100026.27;;;15.06;72.23
77572;BME280;67214;47.454;18.966;2023-06-14T05:20:29;100021.02;;;15.18;72.23
77572;BME280;67214;47.454;18.966;2023-06-14T05:22:57;100017.47;;;15.35;71.14
77572;BME280;67214;47.454;18.966;2023-06-14T05:25:24;100013.09;;;15.52;70.92
77572;BME280;67214;47.454;18.966;2023-06-14T05:27:52;100018.70;;;15.71;70.66
77572;BME280;67214;47.454;18.966;2023-06-14T05:30:19;100023.95;;;15.85;70.17
77572;BME280;67214;47.454;18.966;2023-06-14T05:32:47;100025.36;;;16.01;69.96
77572;BME280;67214;47.454;18.966;2023-06-14T05:35:14;100027.04;;;16.10;69.68
77572;BME280;67214;47.454;18.966;2023-06-14T05:37:42;100028.56;;;16.08;69.22
77572;BME280;67214;47.454;18.966;2023-06-14T05:40:10;100030.06;;;16.11;70.15
77572;BME280;67214;47.454;18.966;2023-06-14T05:42:37;100026.91;;;16.19;69.85
77572;BME280;67214;47.454;18.966;2023-06-14T05:45:05;100028.78;;;16.31;68.73
77572;BME280;67214;47.454;18.966;2023-06-14T05:47:33;100024.99;;;16.46;67.19
77572;BME280;67214;47.454;18.966;2023-06-14T05:50:01;100024.32;;;16.56;67.06
77572;BME280;67214;47.454;18.966;2023-06-14T05:52:28;100032.91;;;16.67;67.64
77572;BME280;67214;47.454;18.966;2023-06-14T05:54:56;100033.26;;;16.85;66.57
77572;BME280;67214;47.454;18.966;2023-06-14T05:57:23;100026.91;;;16.90;65.52
77572;BME280;67214;47.454;18.966;2023-06-14T05:59:51;100024.23;;;17.02;66.48
77572;BME280;67214;47.454;18.966;2023-06-14T06:02:18;100024.88;;;17.00;65.57
77572;BME280;67214;47.454;18.966;2023-06-14T06:04:46;100025.56;;;17.14;65.32
77572;BME280;67214;47.454;18.966;2023-06-14T06:07:14;100020.03;;;17.24;65.38
77572;BME280;67214;47.454;18.966;2023-06-14T06:09:41;100023.70;;;17.35;65.00
77572;BME280;67214;47.454;18.966;2023-06-14T06:12:09;100013.95;;;17.46;64.70
77572;BME280;67214;47.454;18.966;2023-06-14T06:14:37;100022.81;;;17.54;64.59
77572;BME280;67214;47.454;18.966;2023-06-14T06:17:05;100021.83;;;17.59;65.06
77572;BME280;67214;47.454;18.966;2023-06-14T06:19:32;100015.45;;;17.64;64.53
77572;BME280;67214;47.454;18.966;2023-06-14T06:22:00;100019.47;;;17.69;63.95
77572;BME280;67214;47.454;18.966;2023-06-14T06:24:27;100025.30;;;17.80;63.13
77572;BME280;67214;47.454;18.966;2023-06-14T06:26:55;100030.94;;;17.89;62.87
77572;BME280;67214;47.454;18.966;2023-06-14T06:29:22;100018.78;;;18.14;62.72
77572;BME280;67214;47.454;18.966;2023-06-14T06:31:50;100028.91;;;18.30;62.48
77572;BME280;67214;47.454;18.966;2023-06-14T06:34:17;100022.91;;;18.51;61.57
77572;BME280;67214;47.454;18.966;2023-06-14T06:36:45;100018.10;;;18.73;60.76
77572;BME280;67214;47.454;18.966;2023-06-14T06:39:12;100028.02;;;18.73;59.70
77572;BME280;67214;47.454;18.966;2023-06-14T06:41:41;100014.92;;;18.92;59.93
77572;BME280;67214;47.454;18.966;2023-06-14T06:44:08;100029.77;;;19.07;59.20
77572;BME280;67214;47.454;18.966;2023-06-14T06:46:38;100014.41;;;19.12;58.26
77572;BME280;67214;47.454;18.966;2023-06-14T06:49:09;100018.92;;;18.96;59.30
77572;BME280;67214;47.454;18.966;2023-06-14T06:51:52;100031.72;;;18.94;59.47
77572;BME280;67214;47.454;18.966;2023-06-14T06:54:11;100027.92;;;19.03;59.00
77572;BME280;67214;47.454;18.966;2023-06-14T06:56:38;100030.44;;;19.05;59.11
77572;BME280;67214;47.454;18.966;2023-06-14T06:59:06;100028.22;;;19.09;58.59
77572;BME280;67214;47.454;18.966;2023-06-14T07:01:36;100028.82;;;19.19;58.85
77572;BME280;67214;47.454;18.966;2023-06-14T07:04:03;100020.59;;;18.97;58.66
77572;BME280;67214;47.454;18.966;2023-06-14T07:06:31;100022.55;;;19.03;59.81
77572;BME280;67214;47.454;18.966;2023-06-14T07:08:58;100027.05;;;19.11;58.53
77572;BME280;67214;47.454;18.966;2023-06-14T07:11:28;100034.95;;;19.09;58.86
77572;BME280;67214;47.454;18.966;2023-06-14T07:13:55;100037.02;;;19.21;57.31
77572;BME280;67214;47.454;18.966;2023-06-14T07:16:22;100026.89;;;19.27;57.75
77572;BME280;67214;47.454;18.966;2023-06-14T07:18:50;100031.91;;;19.30;58.18
77572;BME280;67214;47.454;18.966;2023-06-14T07:21:17;100028.70;;;19.31;57.55
77572;BME280;67214;47.454;18.966;2023-06-14T07:23:45;100034.13;;;19.27;58.08
77572;BME280;67214;47.454;18.966;2023-06-14T07:26:13;100029.42;;;19.25;58.58
77572;BME280;67214;47.454;18.966;2023-06-14T07:28:40;100017.15;;;19.26;57.67
77572;BME280;67214;47.454;18.966;2023-06-14T07:31:09;100021.98;;;19.31;58.45
77572;BME280;67214;47.454;18.966;2023-06-14T07:33:37;100033.08;;;19.28;57.70
77572;BME280;67214;47.454;18.966;2023-06-14T07:36:05;100025.89;;;19.24;58.87
77572;BME280;67214;47.454;18.966;2023-06-14T07:38:32;100022.99;;;19.30;56.85
77572;BME280;67214;47.454;18.966;2023-06-14T07:41:00;100035.05;;;19.34;56.54
77572;BME280;67214;47.454;18.966;2023-06-14T07:43:28;100037.58;;;19.35;57.04
77572;BME280;67214;47.454;18.966;2023-06-14T07:45:56;100037.02;;;19.44;56.33
77572;BME280;67214;47.454;18.966;2023-06-14T07:48:23;100033.49;;;19.43;58.27
77572;BME280;67214;47.454;18.966;2023-06-14T07:50:50;100045.34;;;19.68;57.71
77572;BME280;67214;47.454;18.966;2023-06-14T07:53:18;100043.61;;;19.85;56.90
77572;BME280;67214;47.454;18.966;2023-06-14T07:55:46;100047.48;;;19.72;55.60
77572;BME280;67214;47.454;18.966;2023-06-14T07:58:14;100047.02;;;19.83;55.67
77572;BME280;67214;47.454;18.966;2023-06-14T08:00:42;100047.00;;;19.98;55.20
77572;BME280;67214;47.454;18.966;2023-06-14T08:03:10;100054.52;;;19.59;55.10
77572;BME280;67214;47.454;18.966;2023-06-14T08:05:38;100049.45;;;19.89;55.55
77572;BME280;67214;47.454;18.966;2023-06-14T08:08:05;100054.86;;;20.44;55.11
77572;BME280;67214;47.454;18.966;2023-06-14T08:10:33;100041.08;;;20.28;54.38
77572;BME280;67214;47.454;18.966;2023-06-14T08:13:00;100045.28;;;20.77;53.98
77572;BME280;67214;47.454;18.966;2023-06-14T08:15:27;100052.73;;;20.85;52.16
77572;BME280;67214;47.454;18.966;2023-06-14T08:17:55;100043.73;;;20.57;52.08
77572;BME280;67214;47.454;18.966;2023-06-14T08:20:22;100048.95;;;20.33;53.20
77572;BME280;67214;47.454;18.966;2023-06-14T08:22:50;100043.82;;;20.24;52.70
77572;BME280;67214;47.454;18.966;2023-06-14T08:25:19;100047.86;;;20.38;51.71
77572;BME280;67214;47.454;18.966;2023-06-14T08:27:47;100043.87;;;20.34;53.80
77572;BME280;67214;47.454;18.966;2023-06-14T08:30:15;100049.52;;;20.29;54.37
77572;BME280;67214;47.454;18.966;2023-06-14T08:32:44;100046.12;;;20.27;54.41
77572;BME280;67214;47.454;18.966;2023-06-14T08:35:11;100050.25;;;20.37;53.92
77572;BME280;67214;47.454;18.966;2023-06-14T08:37:40;100053.84;;;20.45;54.60
77572;BME280;67214;47.454;18.966;2023-06-14T08:40:19;100065.02;;;20.12;54.57
77572;BME280;67214;47.454;18.966;2023-06-14T08:42:54;100065.75;;;20.21;54.85
77572;BME280;67214;47.454;18.966;2023-06-14T08:45:22;100073.49;;;20.05;53.84
77572;BME280;67214;47.454;18.966;2023-06-14T08:47:50;100080.43;;;20.04;54.31
77572;BME280;67214;47.454;18.966;2023-06-14T08:50:21;100074.39;;;20.16;54.90
77572;BME280;67214;47.454;18.966;2023-06-14T08:52:53;100072.33;;;20.18;56.32
77572;BME280;67214;47.454;18.966;2023-06-14T08:55:22;100079.39;;;20.19;55.28
77572;BME280;67214;47.454;18.966;2023-06-14T08:57:51;100078.84;;;20.24;56.69
77572;BME280;67214;47.454;18.966;2023-06-14T09:00:21;100092.16;;;20.07;55.17
77572;BME280;67214;47.454;18.966;2023-06-14T09:02:51;100093.77;;;20.26;54.81
77572;BME280;67214;47.454;18.966;2023-06-14T09:05:22;100087.65;;;20.18;53.92
77572;BME280;67214;47.454;18.966;2023-06-14T09:07:50;100100.55;;;20.41;53.80
77572;BME280;67214;47.454;18.966;2023-06-14T09:10:19;100096.15;;;20.29;53.62
77572;BME280;67214;47.454;18.966;2023-06-14T09:12:47;100087.52;;;20.45;53.37
77572;BME280;67214;47.454;18.966;2023-06-14T09:15:15;100086.36;;;20.43;52.97
77572;BME280;67214;47.454;18.966;2023-06-14T09:17:43;100092.54;;;20.58;53.84
77572;BME280;67214;47.454;18.966;2023-06-14T09:20:10;100098.03;;;20.65;53.33
77572;BME280;67214;47.454;18.966;2023-06-14T09:22:42;100079.39;;;20.59;52.33
77572;BME280;67214;47.454;18.966;2023-06-14T09:25:10;100081.91;;;20.35;53.21
77572;BME280;67214;47.454;18.966;2023-06-14T09:27:39;100085.56;;;20.64;53.07
77572;BME280;67214;47.454;18.966;2023-06-14T09:30:10;100094.86;;;20.86;53.70
77572;BME280;67214;47.454;18.966;2023-06-14T09:32:38;100090.78;;;20.65;52.87
77572;BME280;67214;47.454;18.966;2023-06-14T09:35:07;100083.59;;;20.83;52.12
77572;BME280;67214;47.454;18.966;2023-06-14T09:37:35;100089.64;;;20.96;53.04
77572;BME280;67214;47.454;18.966;2023-06-14T09:40:05;100084.49;;;20.79;53.41
77572;BME280;67214;47.454;18.966;2023-06-14T09:42:33;100073.84;;;21.46;51.61
77572;BME280;67214;47.454;18.966;2023-06-14T09:45:02;100067.95;;;21.80;50.18
77572;BME280;67214;47.454;18.966;2023-06-14T09:47:31;100065.78;;;21.35;51.19
77572;BME280;67214;47.454;18.966;2023-06-14T09:49:58;100060.94;;;21.86;53.58
77572;BME280;67214;47.454;18.966;2023-06-14T09:52:28;100061.97;;;21.85;50.76
77572;BME280;67214;47.454;18.966;2023-06-14T09:54:56;100061.56;;;21.99;49.58
77572;BME280;67214;47.454;18.966;2023-06-14T09:57:26;100064.70;;;22.26;48.71
77572;BME280;67214;47.454;18.966;2023-06-14T09:59:57;100053.86;;;22.37;47.15
77572;BME280;67214;47.454;18.966;2023-06-14T10:02:34;100053.11;;;23.19;47.82
77572;BME280;67214;47.454;18.966;2023-06-14T10:05:07;100062.09;;;23.26;43.81
77572;BME280;67214;47.454;18.966;2023-06-14T10:10:09;100062.36;;;22.64;45.18
77572;BME280;67214;47.454;18.966;2023-06-14T10:12:37;100056.73;;;22.89;44.78
77572;BME280;67214;47.454;18.966;2023-06-14T10:15:05;100049.41;;;23.46;46.11
77572;BME280;67214;47.454;18.966;2023-06-14T10:17:48;100039.97;;;23.82;43.38
77572;BME280;67214;47.454;18.966;2023-06-14T10:25:35;100051.16;;;23.56;42.26
77572;BME280;67214;47.454;18.966;2023-06-14T10:28:19;100053.39;;;22.81;42.34
77572;BME280;67214;47.454;18.966;2023-06-14T10:33:35;100037.58;;;23.83;41.24
77572;BME280;67214;47.454;18.966;2023-06-14T10:36:31;100044.05;;;24.11;41.44
77572;BME280;67214;47.454;18.966;2023-06-14T10:39:05;100036.63;;;23.86;41.48
77572;BME280;67214;47.454;18.966;2023-06-14T10:41:36;100039.81;;;24.41;42.45
77572;BME280;67214;47.454;18.966;2023-06-14T10:46:53;100026.12;;;25.14;41.05
77572;BME280;67214;47.454;18.966;2023-06-14T10:52:13;100034.29;;;23.68;38.13
77572;BME280;67214;47.454;18.966;2023-06-14T10:55:02;100031.17;;;23.31;40.75
77572;BME280;67214;47.454;18.966;2023-06-14T10:57:32;100031.67;;;23.24;40.83
77572;BME280;67214;47.454;18.966;2023-06-14T11:00:00;100024.77;;;22.69;40.89
77572;BME280;67214;47.454;18.966;2023-06-14T11:05:09;100022.16;;;22.72;41.91
77572;BME280;67214;47.454;18.966;2023-06-14T11:10:41;100012.97;;;23.91;39.62
77572;BME280;67214;47.454;18.966;2023-06-14T11:13:11;100005.27;;;24.23;38.87
77572;BME280;67214;47.454;18.966;2023-06-14T11:15:43;100016.28;;;23.99;39.01
77572;BME280;67214;47.454;18.966;2023-06-14T11:18:10;100017.82;;;24.71;39.26
77572;BME280;67214;47.454;18.966;2023-06-14T11:20:40;100017.11;;;24.00;39.26
77572;BME280;67214;47.454;18.966;2023-06-14T11:23:07;100014.44;;;23.87;38.61
77572;BME280;67214;47.454;18.966;2023-06-14T11:25:35;100012.84;;;23.33;40.50
77572;BME280;67214;47.454;18.966;2023-06-14T11:28:02;100009.02;;;23.80;38.87
77572;BME280;67214;47.454;18.966;2023-06-14T11:30:30;100015.86;;;24.31;38.35
77572;BME280;67214;47.454;18.966;2023-06-14T11:32:57;100018.86;;;24.70;37.12
77572;BME280;67214;47.454;18.966;2023-06-14T11:35:25;100014.11;;;24.81;36.47
77572;BME280;67214;47.454;18.966;2023-06-14T11:37:55;100016.70;;;24.70;38.17
77572;BME280;67214;47.454;18.966;2023-06-14T11:40:25;100011.06;;;24.87;35.26
77572;BME280;67214;47.454;18.966;2023-06-14T11:43:01;100006.98;;;25.18;36.35
77572;BME280;67214;47.454;18.966;2023-06-14T11:45:29;99999.92;;;25.69;36.00
77572;BME280;67214;47.454;18.966;2023-06-14T11:47:58;99999.08;;;26.14;34.89
77572;BME280;67214;47.454;18.966;2023-06-14T11:50:26;99999.42;;;26.84;34.40
77572;BME280;67214;47.454;18.966;2023-06-14T11:52:56;100001.39;;;27.30;33.05
77572;BME280;67214;47.454;18.966;2023-06-14T11:55:26;99999.99;;;26.35;33.25
77572;BME280;67214;47.454;18.966;2023-06-14T11:57:57;100002.27;;;27.21;32.83
77572;BME280;67214;47.454;18.966;2023-06-14T12:00:25;100005.09;;;27.15;31.23
77572;BME280;67214;47.454;18.966;2023-06-14T12:02:54;99989.45;;;26.57;31.48
77572;BME280;67214;47.454;18.966;2023-06-14T12:05:25;100001.72;;;26.39;32.17
77572;BME280;67214;47.454;18.966;2023-06-14T12:08:00;100001.86;;;26.95;31.91
77572;BME280;67214;47.454;18.966;2023-06-14T12:10:29;100001.20;;;25.85;32.75
77572;BME280;67214;47.454;18.966;2023-06-14T12:12:58;99997.28;;;25.90;32.12
77572;BME280;67214;47.454;18.966;2023-06-14T12:15:31;100005.06;;;25.59;32.13
77572;BME280;67214;47.454;18.966;2023-06-14T12:17:58;100012.76;;;24.81;34.21
77572;BME280;67214;47.454;18.966;2023-06-14T12:20:30;100007.80;;;24.40;34.69
77572;BME280;67214;47.454;18.966;2023-06-14T12:23:03;100004.89;;;24.35;35.06
77572;BME280;67214;47.454;18.966;2023-06-14T12:25:35;100008.91;;;24.64;37.16
77572;BME280;67214;47.454;18.966;2023-06-14T12:28:09;100008.91;;;24.64;37.16
77572;BME280;67214;47.454;18.966;2023-06-14T12:30:37;100013.81;;;24.42;38.70
77572;BME280;67214;47.454;18.966;2023-06-14T12:33:05;100013.81;;;24.42;38.70
77572;BME280;67214;47.454;18.966;2023-06-14T12:35:33;100018.71;;;24.14;39.03
77572;BME280;67214;47.454;18.966;2023-06-14T12:38:01;100014.95;;;24.22;39.18
77572;BME280;67214;47.454;18.966;2023-06-14T12:40:30;100017.66;;;24.28;40.41
77572;BME280;67214;47.454;18.966;2023-06-14T12:42:58;100013.27;;;23.50;41.13
77572;BME280;67214;47.454;18.966;2023-06-14T12:45:25;100018.84;;;23.68;40.81
77572;BME280;67214;47.454;18.966;2023-06-14T12:47:52;100011.49;;;23.95;41.50
77572;BME280;67214;47.454;18.966;2023-06-14T12:50:20;100017.44;;;23.46;42.39
77572;BME280;67214;47.454;18.966;2023-06-14T12:52:47;100014.72;;;23.59;42.97
77572;BME280;67214;47.454;18.966;2023-06-14T12:55:15;100017.29;;;23.70;41.83
77572;BME280;67214;47.454;18.966;2023-06-14T12:57:42;100008.03;;;23.61;42.21
77572;BME280;67214;47.454;18.966;2023-06-14T13:00:11;100005.88;;;23.22;42.66
77572;BME280;67214;47.454;18.966;2023-06-14T13:02:39;100001.28;;;22.96;43.49
77572;BME280;67214;47.454;18.966;2023-06-14T13:05:06;100007.31;;;22.91;44.02
77572;BME280;67214;47.454;18.966;2023-06-14T13:07:34;100009.47;;;22.79;43.63
77572;BME280;67214;47.454;18.966;2023-06-14T13:10:01;100009.80;;;22.73;43.84
77572;BME280;67214;47.454;18.966;2023-06-14T13:12:29;100004.80;;;22.40;43.65